Time;durP1;ratioP1;P1;durP2;ratioP2;P2;SDS_P1;SDS_P2;PMS_P1;PMS_P2;Temp;Humidity;BMP_temperature;BMP_pressure;BME280_temperature;BME280_humidity;BME280_pressure;Samples;Min_cycle;Max_cycle;Signal;HPM_P1;HPM_P2
2024/01/25 00:00:18;;;;;;;14.57;13.27;;;;;;;3.36;88.02;93274.13;5029846;28;20254;-79
2024/01/25 00:02:44;;;;;;;16.37;15.00;;;;;;;3.44;85.48;93294.47;5029152;28;20233;-79
2024/01/25 00:05:09;;;;;;;16.77;15.07;;;;;;;3.38;83.84;93272.13;5029724;28;20251;-79
2024/01/25 00:07:34;;;;;;;18.77;16.93;;;;;;;2.93;87.97;93272.44;5029522;28;20222;-79
2024/01/25 00:10:00;;;;;;;18.53;16.73;;;;;;;3.25;87.23;93289.31;5029723;28;20175;-79
2024/01/25 00:12:25;;;;;;;19.30;16.63;;;;;;;3.16;87.43;93276.94;5029248;28;20914;-79
2024/01/25 00:14:52;;;;;;;17.93;15.77;;;;;;;3.34;87.03;93269.19;5029681;28;20683;-78
2024/01/25 00:17:18;;;;;;;17.83;15.93;;;;;;;3.52;86.30;93268.34;5029297;28;20383;-78
2024/01/25 00:19:43;;;;;;;21.37;16.73;;;;;;;3.39;86.81;93264.16;5028473;28;20190;-79
2024/01/25 00:22:08;;;;;;;19.43;16.23;;;;;;;3.17;87.42;93208.88;5028909;28;20237;-79
2024/01/25 00:24:34;;;;;;;16.80;15.30;;;;;;;3.17;89.06;93219.19;5029864;28;20230;-79
2024/01/25 00:26:59;;;;;;;15.47;13.87;;;;;;;3.28;88.27;93196.00;5029118;28;20249;-79
2024/01/25 00:29:24;;;;;;;15.60;14.10;;;;;;;3.33;87.92;93168.75;5029630;28;20194;-77
2024/01/25 00:31:50;;;;;;;15.77;14.23;;;;;;;3.49;87.09;93152.66;5029228;28;20606;-80
2024/01/25 00:34:16;;;;;;;15.30;13.90;;;;;;;3.45;87.34;93161.81;5028499;28;20190;-80
2024/01/25 00:36:41;;;;;;;14.93;13.83;;;;;;;3.34;88.10;93150.47;5029093;28;20219;-79
2024/01/25 00:39:08;;;;;;;15.20;13.67;;;;;;;3.54;86.47;93171.63;5032007;28;20179;-81
2024/01/25 00:41:34;;;;;;;14.37;13.03;;;;;;;3.51;85.44;93154.00;5033553;28;20225;-81
2024/01/25 00:44:00;;;;;;;15.43;14.00;;;;;;;3.58;86.42;93169.38;5032717;28;20241;-80
2024/01/25 00:46:26;;;;;;;13.83;12.63;;;;;;;3.84;85.71;93190.41;5032913;28;20226;-81
2024/01/25 00:48:52;;;;;;;24.97;19.17;;;;;;;3.80;84.08;93197.00;5033033;28;20179;-80
2024/01/25 00:51:25;;;;;;;21.67;15.63;;;;;;;3.53;84.59;93202.81;5031312;28;20193;-80
2024/01/25 00:53:50;;;;;;;19.40;17.67;;;;;;;3.06;86.22;93176.09;5033228;28;20194;-80
2024/01/25 00:56:16;;;;;;;16.57;14.97;;;;;;;3.37;87.00;93181.00;5032491;28;20232;-80
2024/01/25 00:58:41;;;;;;;17.70;16.00;;;;;;;3.44;86.24;93178.34;5032809;28;20250;-80
2024/01/25 01:01:07;;;;;;;16.60;14.97;;;;;;;3.36;85.62;93158.00;5032095;28;20186;-81
2024/01/25 01:03:33;;;;;;;22.50;14.30;;;;;;;3.66;83.36;93172.41;5031365;28;20222;-81
2024/01/25 01:05:59;;;;;;;15.70;14.17;;;;;;;3.97;83.44;93182.44;5032682;28;20214;-80
2024/01/25 01:08:26;;;;;;;15.50;13.97;;;;;;;4.24;81.87;93186.13;5032354;28;20226;-79
2024/01/25 01:10:51;;;;;;;20.10;15.30;;;;;;;4.21;81.82;93181.44;5032705;28;20190;-79
2024/01/25 01:13:16;;;;;;;17.27;15.67;;;;;;;4.34;81.63;93194.09;5032297;28;20226;-80
2024/01/25 01:15:42;;;;;;;19.17;16.00;;;;;;;4.37;80.78;93185.13;5032489;28;20262;-81
2024/01/25 01:18:07;;;;;;;21.60;15.93;;;;;;;4.19;81.15;93204.13;5032339;28;20230;-81
2024/01/25 01:20:32;;;;;;;18.87;17.07;;;;;;;4.04;82.23;93190.88;5032406;28;20209;-80
2024/01/25 01:22:58;;;;;;;19.73;17.73;;;;;;;3.93;83.12;93198.59;5032243;28;20238;-81
2024/01/25 01:25:23;;;;;;;18.80;16.97;;;;;;;3.81;84.04;93190.06;5032713;28;20214;-80
2024/01/25 01:27:48;;;;;;;18.70;16.70;;;;;;;3.67;83.51;93175.78;5031891;28;20230;-80
2024/01/25 01:30:14;;;;;;;18.93;16.73;;;;;;;3.49;83.59;93135.34;5032761;28;20194;-81
2024/01/25 01:32:39;;;;;;;16.33;14.80;;;;;;;4.08;83.81;93129.19;5031805;28;20227;-80
2024/01/25 01:35:05;;;;;;;15.57;14.10;;;;;;;4.33;83.17;93124.53;5032103;28;20187;-80
2024/01/25 01:37:30;;;;;;;11.37;10.57;;;;;;;4.75;82.04;93118.94;5020679;28;20218;-80
2024/01/25 01:39:55;;;;;;;13.57;12.37;;;;;;;4.98;81.67;93121.41;5031477;28;20242;-79
2024/01/25 01:42:22;;;;;;;11.30;10.70;;;;;;;5.62;79.89;93127.16;5032079;28;20237;-80
2024/01/25 01:44:49;;;;;;;10.50;9.83;;;;;;;6.24;78.79;93126.03;5047323;28;20223;-80
2024/01/25 01:47:15;;;;;;;10.77;10.17;;;;;;;6.74;78.16;93120.69;5031631;28;20260;-81
2024/01/25 01:49:41;;;;;;;10.07;9.67;;;;;;;6.76;79.26;93116.81;5040786;28;20203;-79
2024/01/25 01:52:07;;;;;;;9.40;9.00;;;;;;;6.99;78.06;93106.16;5030262;28;20230;-80
2024/01/25 01:54:32;;;;;;;9.37;8.97;;;;;;;6.98;78.81;93122.75;5032238;28;20191;-79
2024/01/25 01:56:58;;;;;;;9.50;9.17;;;;;;;7.32;78.35;93113.75;5031492;28;20233;-80
2024/01/25 01:59:25;;;;;;;8.87;8.37;;;;;;;7.44;77.98;93121.41;5031808;28;20183;-79
2024/01/25 02:01:51;;;;;;;9.53;9.03;;;;;;;7.44;77.02;93111.78;5031140;28;20230;-80
2024/01/25 02:04:16;;;;;;;9.80;9.20;;;;;;;7.27;76.58;93118.91;5031835;28;20247;-80
2024/01/25 02:06:42;;;;;;;10.10;9.70;;;;;;;7.31;76.22;93117.41;5030253;28;20227;-81
2024/01/25 02:09:07;;;;;;;8.77;8.47;;;;;;;7.27;76.70;93118.13;5031289;28;20175;-80
2024/01/25 02:11:33;;;;;;;9.83;9.33;;;;;;;7.38;76.23;93101.59;5031470;28;20234;-80
2024/01/25 02:13:58;;;;;;;9.57;9.03;;;;;;;7.60;76.19;93110.88;5031190;28;20175;-80
2024/01/25 02:16:24;;;;;;;9.83;9.43;;;;;;;7.62;75.86;93123.63;5030063;28;20293;-78
2024/01/25 02:18:49;;;;;;;10.07;9.67;;;;;;;7.70;76.03;93116.19;5031068;28;20237;-78
2024/01/25 02:21:15;;;;;;;8.37;8.07;;;;;;;7.66;78.89;93122.88;5030987;28;20206;-77
2024/01/25 02:23:40;;;;;;;8.47;8.17;;;;;;;7.44;76.51;93119.56;5047316;28;20273;-79
2024/01/25 02:26:06;;;;;;;10.27;9.90;;;;;;;7.59;77.19;93134.53;5031173;28;20946;-78
2024/01/25 02:28:31;;;;;;;10.10;9.70;;;;;;;7.58;78.18;93125.94;5030519;28;20245;-78
2024/01/25 02:30:57;;;;;;;8.77;8.37;;;;;;;7.62;77.50;93103.63;5031109;28;20187;-79
2024/01/25 02:33:22;;;;;;;9.33;9.03;;;;;;;7.74;77.98;93101.66;5030962;28;20245;-77
2024/01/25 02:35:47;;;;;;;8.60;8.27;;;;;;;7.91;80.36;93119.69;5031414;28;20217;-78
2024/01/25 02:38:13;;;;;;;8.87;8.57;;;;;;;7.57;79.08;93095.78;5030658;28;20242;-79
2024/01/25 02:40:39;;;;;;;9.30;9.00;;;;;;;7.80;78.69;93102.44;5031301;28;20182;-79
2024/01/25 02:43:04;;;;;;;9.43;9.13;;;;;;;7.83;78.89;93115.75;5030329;28;20254;-79
2024/01/25 02:45:29;;;;;;;9.37;9.07;;;;;;;7.68;78.73;93081.06;5031047;28;20211;-79
2024/01/25 02:47:55;;;;;;;9.37;9.07;;;;;;;7.92;77.87;93111.63;5029128;28;20779;-78
2024/01/25 02:50:20;;;;;;;9.23;8.93;;;;;;;7.89;79.12;93082.78;5019622;28;20227;-79
2024/01/25 02:52:46;;;;;;;9.30;9.00;;;;;;;7.81;78.46;93081.41;5030253;28;20222;-80
2024/01/25 02:55:12;;;;;;;8.93;8.63;;;;;;;7.68;78.64;93062.88;5031258;28;20187;-77
2024/01/25 02:57:37;;;;;;;9.47;9.07;;;;;;;7.88;75.67;93071.59;5030374;28;20230;-78
2024/01/25 03:00:03;;;;;;;9.77;9.47;;;;;;;7.83;76.53;93078.56;5030408;28;20254;-78
2024/01/25 03:02:28;;;;;;;9.67;9.37;;;;;;;7.89;76.03;93088.75;5029128;28;20215;-78
2024/01/25 03:04:53;;;;;;;8.80;8.50;;;;;;;7.56;77.94;93091.63;5030340;28;20226;-77
2024/01/25 03:07:19;;;;;;;9.73;9.33;;;;;;;7.53;77.54;93089.50;5030173;28;20259;-78
2024/01/25 03:09:44;;;;;;;8.63;8.33;;;;;;;7.65;78.16;93110.94;5030785;28;20190;-78
2024/01/25 03:12:10;;;;;;;9.13;8.63;;;;;;;7.86;78.05;93120.44;5029997;28;20226;-79
2024/01/25 03:14:35;;;;;;;10.17;9.67;;;;;;;7.82;78.45;93101.19;5031023;28;20191;-78
2024/01/25 03:17:01;;;;;;;9.53;9.13;;;;;;;7.66;79.21;93107.28;5030089;28;20237;-77
2024/01/25 03:19:27;;;;;;;9.67;9.37;;;;;;;7.78;79.25;93118.28;5030544;28;20194;-78
2024/01/25 03:21:54;;;;;;;9.53;9.13;;;;;;;7.50;80.00;93087.41;5030182;28;20238;-78
2024/01/25 03:24:20;;;;;;;9.23;8.93;;;;;;;7.45;80.89;93095.19;5030878;28;20191;-77
2024/01/25 03:26:45;;;;;;;10.03;9.73;;;;;;;7.37;81.00;93094.84;5029498;28;20330;-79
2024/01/25 03:29:10;;;;;;;9.70;9.00;;;;;;;7.29;81.11;93097.88;5030262;28;20296;-78
2024/01/25 03:31:37;;;;;;;9.33;8.97;;;;;;;7.42;80.72;93067.09;5029581;28;20264;-79
2024/01/25 03:34:02;;;;;;;9.03;8.73;;;;;;;7.66;79.80;93057.94;5026616;28;20397;-78
2024/01/25 03:36:28;;;;;;;9.80;9.43;;;;;;;7.57;79.25;93056.81;5029812;28;20189;-83
2024/01/25 03:38:53;;;;;;;10.27;9.87;;;;;;;7.49;79.08;93065.06;5029861;28;20190;-78
2024/01/25 03:41:19;;;;;;;9.57;9.07;;;;;;;7.60;78.79;93079.72;5029891;28;20240;-78
2024/01/25 03:43:44;;;;;;;9.80;9.50;;;;;;;7.55;78.60;93068.47;5029643;28;20206;-79
2024/01/25 03:46:11;;;;;;;8.17;7.87;;;;;;;7.72;78.75;93028.34;5029868;28;20220;-79
2024/01/25 03:48:36;;;;;;;9.50;9.10;;;;;;;7.70;82.16;93017.44;5035154;28;20222;-78
2024/01/25 03:51:02;;;;;;;9.90;9.57;;;;;;;7.51;78.32;93031.84;5029753;28;20214;-79
2024/01/25 03:53:27;;;;;;;8.67;8.27;;;;;;;7.60;77.43;93035.53;5030004;28;20696;-79
2024/01/25 03:55:52;;;;;;;8.90;8.50;;;;;;;7.53;78.07;93039.38;5029746;28;20577;-78
2024/01/25 03:58:18;;;;;;;10.23;9.80;;;;;;;7.67;76.63;93019.75;5029715;28;20219;-80
2024/01/25 04:00:43;;;;;;;9.80;9.40;;;;;;;7.89;75.63;93013.38;5030019;28;20322;-78
2024/01/25 04:03:10;;;;;;;9.93;9.60;;;;;;;7.82;75.01;92973.03;5029305;28;20229;-80
2024/01/25 04:05:35;;;;;;;8.50;8.20;;;;;;;7.84;75.84;93017.75;5029601;28;20266;-79
2024/01/25 04:08:01;;;;;;;9.30;8.80;;;;;;;7.78;75.99;93013.56;5029198;28;20226;-79
2024/01/25 04:10:26;;;;;;;9.53;9.13;;;;;;;7.78;75.47;93031.75;5029746;28;20195;-79
2024/01/25 04:12:52;;;;;;;8.83;8.53;;;;;;;7.65;75.00;93045.19;5029872;28;20226;-79
2024/01/25 04:15:17;;;;;;;8.50;8.20;;;;;;;7.48;76.71;93026.34;5033871;28;20195;-79
2024/01/25 04:17:43;;;;;;;9.63;8.87;;;;;;;7.64;77.06;93031.41;5033258;28;20979;-81
2024/01/25 04:20:08;;;;;;;8.47;8.07;;;;;;;7.77;79.28;93023.19;5021098;28;20213;-79
2024/01/25 04:22:35;;;;;;;9.37;8.90;;;;;;;7.85;75.42;93009.72;5033501;28;20249;-82
2024/01/25 04:25:00;;;;;;;8.97;8.57;;;;;;;7.85;76.22;93008.91;5034008;28;20273;-79
2024/01/25 04:27:26;;;;;;;8.80;8.50;;;;;;;7.71;74.38;93019.00;5033413;28;20233;-81
2024/01/25 04:29:51;;;;;;;9.93;9.30;;;;;;;7.70;74.77;93012.25;5033898;28;20217;-78
2024/01/25 04:32:17;;;;;;;8.83;8.50;;;;;;;7.48;74.08;93011.56;5032661;28;20242;-78
2024/01/25 04:34:43;;;;;;;9.70;9.30;;;;;;;7.39;74.13;93012.28;5033160;28;20203;-75
2024/01/25 04:37:09;;;;;;;9.87;9.47;;;;;;;7.67;72.08;93017.91;5031772;28;20226;-74
2024/01/25 04:39:34;;;;;;;9.63;9.13;;;;;;;7.58;72.86;93011.63;5032686;28;20186;-74
2024/01/25 04:42:00;;;;;;;10.30;9.70;;;;;;;7.54;70.23;93018.34;5031786;28;20226;-74
2024/01/25 04:44:25;;;;;;;10.10;9.70;;;;;;;7.22;71.29;92983.81;5032184;28;20226;-74
2024/01/25 04:46:52;;;;;;;9.73;9.33;;;;;;;7.58;69.33;93039.44;5031885;28;20230;-74
2024/01/25 04:49:17;;;;;;;9.90;9.43;;;;;;;7.50;69.66;93068.47;5031747;28;20246;-74
2024/01/25 04:51:42;;;;;;;9.70;9.10;;;;;;;7.53;69.94;93060.16;5031427;28;20230;-76
2024/01/25 04:54:12;;;;;;;9.27;8.87;;;;;;;7.42;71.50;93069.72;5032243;28;20190;-79
2024/01/25 04:56:37;;;;;;;10.60;10.10;;;;;;;7.43;70.34;93067.88;5032272;28;20223;-75
2024/01/25 04:59:03;;;;;;;11.13;10.53;;;;;;;7.40;70.79;93061.38;5030712;28;20332;-75
2024/01/25 05:01:28;;;;;;;9.47;8.83;;;;;;;7.31;72.64;93065.47;5031565;28;20183;-79
2024/01/25 05:03:53;;;;;;;10.63;10.13;;;;;;;7.48;69.23;93079.09;5032250;28;20194;-74
2024/01/25 05:06:19;;;;;;;9.87;9.33;;;;;;;7.30;68.50;93073.50;5031477;28;20202;-75
2024/01/25 05:08:44;;;;;;;9.80;9.17;;;;;;;7.30;69.11;93074.25;5031866;28;20250;-71
2024/01/25 05:11:10;;;;;;;11.03;10.33;;;;;;;7.19;68.79;93103.75;5031897;28;20187;-71
2024/01/25 05:13:35;;;;;;;10.30;9.70;;;;;;;7.26;67.67;93083.59;5031692;28;20237;-72
2024/01/25 05:16:00;;;;;;;10.83;10.23;;;;;;;7.08;68.10;93089.09;5031748;28;20183;-71
2024/01/25 05:18:26;;;;;;;12.10;11.43;;;;;;;6.83;68.22;93070.72;5031422;28;20218;-73
2024/01/25 05:20:51;;;;;;;10.63;9.80;;;;;;;7.07;68.54;93100.53;5031537;28;20225;-73
2024/01/25 05:23:16;;;;;;;11.37;10.60;;;;;;;7.03;68.80;93116.84;5031221;28;20238;-72
2024/01/25 05:25:42;;;;;;;10.47;9.70;;;;;;;7.11;71.12;93126.78;5030697;28;20248;-75
2024/01/25 05:28:07;;;;;;;9.33;8.90;;;;;;;7.06;69.21;93129.34;5030507;28;20230;-78
2024/01/25 05:30:32;;;;;;;11.30;10.70;;;;;;;7.25;68.75;93128.78;5031600;28;20199;-76
2024/01/25 05:32:58;;;;;;;9.53;9.03;;;;;;;7.05;69.70;93125.94;5031843;28;20227;-77
2024/01/25 05:35:23;;;;;;;9.33;8.70;;;;;;;7.12;70.54;93121.34;5031695;28;20179;-76
2024/01/25 05:37:49;;;;;;;11.30;10.47;;;;;;;7.14;68.22;93153.06;5030937;28;20223;-80
2024/01/25 05:40:14;;;;;;;10.73;9.97;;;;;;;7.34;69.03;93114.31;5032805;28;20179;-74
2024/01/25 05:42:40;;;;;;;10.57;9.97;;;;;;;7.19;68.03;93121.94;5031064;28;20234;-75
2024/01/25 05:45:06;;;;;;;10.97;10.30;;;;;;;6.95;69.14;93110.28;5031550;28;20222;-75
2024/01/25 05:47:31;;;;;;;11.37;10.63;;;;;;;6.93;69.62;93155.66;5029505;28;20248;-75
2024/01/25 05:49:57;;;;;;;10.37;9.67;;;;;;;6.88;69.57;93137.44;5030246;28;20183;-71
2024/01/25 05:52:23;;;;;;;10.87;10.37;;;;;;;6.93;69.72;93132.28;5029792;28;20247;-72
2024/01/25 05:54:49;;;;;;;11.03;10.33;;;;;;;6.89;71.35;93134.63;5033397;28;20187;-71
2024/01/25 05:57:15;;;;;;;10.40;9.70;;;;;;;6.82;71.80;93134.00;5034106;28;20269;-72
2024/01/25 05:59:40;;;;;;;9.73;9.27;;;;;;;6.73;71.49;93140.66;5030519;28;20218;-71
2024/01/25 06:02:07;;;;;;;11.10;10.17;;;;;;;6.68;72.04;93126.84;5030173;28;20248;-72
2024/01/25 06:04:33;;;;;;;10.83;10.27;;;;;;;6.56;72.93;93113.97;5026202;28;20211;-75
2024/01/25 06:06:58;;;;;;;9.63;9.10;;;;;;;6.58;72.53;93127.50;5029908;28;20237;-74
2024/01/25 06:09:27;;;;;;;9.03;8.63;;;;;;;6.60;72.71;93141.00;5031325;28;20210;-69
2024/01/25 06:11:52;;;;;;;10.70;9.80;;;;;;;6.56;72.94;93145.09;5031120;28;20246;-75
2024/01/25 06:14:18;;;;;;;9.30;8.60;;;;;;;6.52;74.16;93149.97;5028612;28;20248;-73
2024/01/25 06:16:44;;;;;;;10.53;9.93;;;;;;;6.49;72.46;93160.03;5031253;28;20253;-75
2024/01/25 06:19:10;;;;;;;10.03;9.53;;;;;;;6.58;72.53;93169.00;5021058;28;20175;-73
2024/01/25 06:21:37;;;;;;;11.57;10.60;;;;;;;6.46;72.54;93165.72;5029982;28;20596;-74
2024/01/25 06:24:06;;;;;;;10.40;9.70;;;;;;;6.50;72.35;93166.81;5027089;28;20186;-75
2024/01/25 06:26:31;;;;;;;11.33;10.53;;;;;;;6.51;72.78;93165.78;5026271;28;20215;-74
2024/01/25 06:28:57;;;;;;;11.43;10.73;;;;;;;6.46;73.47;93163.91;5029259;28;20258;-74
2024/01/25 06:31:25;;;;;;;11.40;10.60;;;;;;;6.40;72.91;93159.69;5030003;28;20179;-74
2024/01/25 06:33:52;;;;;;;10.70;9.77;;;;;;;6.36;72.89;93124.91;5030476;28;20175;-74
2024/01/25 06:36:18;;;;;;;10.17;9.47;;;;;;;6.34;73.28;93157.25;5029527;28;20262;-73
2024/01/25 06:38:43;;;;;;;11.17;10.47;;;;;;;6.40;72.92;93164.88;5029902;28;20191;-74
2024/01/25 06:41:09;;;;;;;11.57;10.37;;;;;;;6.56;72.34;93176.22;5030070;28;20191;-74
2024/01/25 06:43:34;;;;;;;10.97;9.97;;;;;;;6.45;72.53;93182.31;5029005;28;20254;-74
2024/01/25 06:46:00;;;;;;;11.17;10.23;;;;;;;6.60;75.81;93179.91;5030165;28;20233;-74
2024/01/25 06:48:25;;;;;;;11.43;10.57;;;;;;;6.47;72.01;93172.50;5028431;28;20231;-73
2024/01/25 06:50:50;;;;;;;11.23;10.53;;;;;;;6.45;71.45;93175.31;5029634;28;20199;-75
2024/01/25 06:53:16;;;;;;;12.07;11.10;;;;;;;6.37;70.62;93178.31;5029101;28;20281;-75
2024/01/25 06:55:42;;;;;;;10.40;9.73;;;;;;;6.73;74.84;93171.78;5029760;28;21193;-74
2024/01/25 06:58:08;;;;;;;10.70;9.87;;;;;;;6.96;75.29;93168.94;5027168;28;20282;-74
2024/01/25 07:00:33;;;;;;;11.20;10.07;;;;;;;6.57;71.43;93151.09;5029768;28;20216;-76
2024/01/25 07:02:58;;;;;;;10.53;9.70;;;;;;;6.31;70.64;93161.13;5027053;28;20236;-76
2024/01/25 07:05:24;;;;;;;15.23;10.60;;;;;;;6.42;71.71;93175.00;5044961;28;20223;-77
2024/01/25 07:07:49;;;;;;;12.53;11.43;;;;;;;6.47;71.36;93149.16;5031895;28;20230;-77
2024/01/25 07:10:15;;;;;;;11.87;10.80;;;;;;;6.46;69.89;93153.53;5027316;28;20217;-73
2024/01/25 07:12:40;;;;;;;10.67;9.97;;;;;;;6.44;69.43;93147.03;5029168;28;20222;-72
2024/01/25 07:15:06;;;;;;;11.70;10.67;;;;;;;6.53;69.67;93119.66;5029461;28;20195;-73
2024/01/25 07:17:31;;;;;;;12.03;11.03;;;;;;;6.52;68.97;93133.66;5024759;28;20236;-73
2024/01/25 07:19:57;;;;;;;12.10;11.30;;;;;;;6.54;69.72;93116.03;5044794;28;20195;-72
2024/01/25 07:22:22;;;;;;;10.13;9.37;;;;;;;6.63;69.43;93126.78;5029131;28;20622;-73
2024/01/25 07:24:47;;;;;;;11.67;10.40;;;;;;;6.58;68.24;93143.06;5029652;28;20287;-74
2024/01/25 07:27:13;;;;;;;11.57;10.60;;;;;;;6.50;68.31;93136.50;5028110;28;20231;-73
2024/01/25 07:29:38;;;;;;;10.73;9.93;;;;;;;6.65;72.16;93133.28;5029637;28;20193;-73
2024/01/25 07:32:04;;;;;;;11.10;10.13;;;;;;;6.50;68.34;93156.44;5028220;28;20218;-76
2024/01/25 07:34:29;;;;;;;11.53;10.53;;;;;;;6.48;68.65;93168.84;5029634;28;20193;-73
2024/01/25 07:36:54;;;;;;;13.13;9.70;;;;;;;6.39;68.84;93162.53;5027370;28;20289;-74
2024/01/25 07:39:20;;;;;;;11.67;10.77;;;;;;;8.97;85.08;93162.72;5029694;28;20187;-72
2024/01/25 07:41:45;;;;;;;10.47;9.47;;;;;;;7.80;64.95;93170.03;5029390;28;20230;-75
2024/01/25 07:44:12;;;;;;;12.97;10.40;;;;;;;7.09;68.51;93165.19;5029800;28;20229;-75
2024/01/25 07:46:37;;;;;;;10.73;9.90;;;;;;;6.55;67.86;93172.09;5029525;28;20224;-76
2024/01/25 07:49:03;;;;;;;10.97;10.07;;;;;;;6.69;68.03;93181.09;5029193;28;20198;-76
2024/01/25 07:51:28;;;;;;;10.17;9.57;;;;;;;6.26;68.42;93140.31;5029576;28;20179;-76
2024/01/25 07:53:54;;;;;;;11.13;10.13;;;;;;;6.44;68.58;93183.34;5030129;28;20191;-76
2024/01/25 07:56:21;;;;;;;10.73;9.87;;;;;;;6.48;68.25;93184.41;5027928;28;20193;-76
2024/01/25 07:58:48;;;;;;;11.33;10.53;;;;;;;6.51;69.32;93184.75;5028882;28;20183;-76
2024/01/25 08:01:17;;;;;;;11.77;10.60;;;;;;;6.52;69.72;93211.47;5044583;28;20237;-76
2024/01/25 08:03:43;;;;;;;11.00;10.30;;;;;;;6.54;68.72;93188.66;5029255;28;20186;-75
2024/01/25 08:06:08;;;;;;;11.57;10.73;;;;;;;6.46;68.10;93176.09;5029193;28;20218;-76
2024/01/25 08:08:33;;;;;;;10.77;9.83;;;;;;;6.55;67.54;93167.66;5028965;28;20222;-76
2024/01/25 08:10:59;;;;;;;10.67;9.90;;;;;;;6.57;66.72;93162.22;5029736;28;20178;-76
2024/01/25 08:13:24;;;;;;;10.77;9.57;;;;;;;6.66;66.64;93160.81;5029430;28;20269;-76
2024/01/25 08:15:51;;;;;;;12.20;11.40;;;;;;;6.54;65.42;93139.38;5030037;28;20250;-77
2024/01/25 08:18:18;;;;;;;11.30;10.20;;;;;;;6.59;65.13;93157.59;5029505;28;20226;-76
2024/01/25 08:20:44;;;;;;;13.93;11.03;;;;;;;6.64;65.11;93154.28;5030160;28;21280;-75
2024/01/25 08:23:09;;;;;;;15.07;11.03;;;;;;;6.88;64.55;93164.16;5028985;28;20229;-78
2024/01/25 08:25:35;;;;;;;10.53;9.70;;;;;;;6.69;64.96;93162.91;5029890;28;20211;-75
2024/01/25 08:28:00;;;;;;;11.17;8.93;;;;;;;6.88;64.97;93158.97;5029101;28;20230;-76
2024/01/25 08:30:25;;;;;;;10.87;9.90;;;;;;;6.84;63.81;93163.09;5029618;28;20186;-76
2024/01/25 08:32:51;;;;;;;10.63;9.47;;;;;;;6.80;62.26;93145.66;5028820;28;20222;-75
2024/01/25 08:35:17;;;;;;;11.63;9.97;;;;;;;6.91;62.80;93153.31;5029851;28;20202;-76
2024/01/25 08:37:42;;;;;;;10.63;9.83;;;;;;;7.09;61.71;93173.78;5029112;28;20226;-77
2024/01/25 08:40:09;;;;;;;11.07;10.13;;;;;;;7.08;61.19;93205.16;5029500;28;20190;-76
2024/01/25 08:42:35;;;;;;;11.40;10.20;;;;;;;6.88;61.98;93195.31;5029289;28;20222;-77
2024/01/25 08:45:01;;;;;;;10.13;9.63;;;;;;;7.10;62.24;93203.09;5029027;28;20226;-76
2024/01/25 08:47:26;;;;;;;10.53;9.63;;;;;;;6.98;63.10;93190.25;5029365;28;20233;-75
2024/01/25 08:49:52;;;;;;;9.87;9.47;;;;;;;6.86;62.24;93192.19;5029508;28;20201;-78
2024/01/25 08:52:17;;;;;;;11.37;10.30;;;;;;;7.01;63.13;93220.13;5028961;28;21849;-76
2024/01/25 08:54:43;;;;;;;10.50;9.77;;;;;;;6.90;63.09;93179.50;5029756;28;20187;-77
2024/01/25 08:57:09;;;;;;;11.03;10.10;;;;;;;7.03;63.44;93176.53;5028974;28;20277;-76
2024/01/25 08:59:37;;;;;;;12.20;10.83;;;;;;;7.09;62.53;93204.91;5046651;28;20182;-77
2024/01/25 09:02:04;;;;;;;11.20;10.40;;;;;;;6.98;63.11;93189.47;5032584;28;20282;-75
2024/01/25 09:04:30;;;;;;;11.57;10.20;;;;;;;7.21;63.38;93174.41;5033025;28;20198;-77
2024/01/25 09:06:55;;;;;;;11.87;10.97;;;;;;;7.31;63.59;93194.50;5032525;28;20286;-76
2024/01/25 09:09:20;;;;;;;11.47;10.47;;;;;;;7.44;63.74;93201.94;5033013;28;20191;-77
2024/01/25 09:11:46;;;;;;;12.07;11.17;;;;;;;7.14;66.61;93206.78;5032556;28;20222;-77
2024/01/25 09:14:11;;;;;;;11.37;10.43;;;;;;;6.94;65.26;93193.56;5032900;28;20254;-76
2024/01/25 09:16:38;;;;;;;11.50;10.67;;;;;;;7.08;66.06;93200.72;5032402;28;20234;-76
2024/01/25 09:19:03;;;;;;;11.53;10.63;;;;;;;6.98;65.76;93189.47;5032998;28;20299;-76
2024/01/25 09:21:29;;;;;;;11.93;10.87;;;;;;;7.12;65.60;93199.25;5031862;28;20191;-76
2024/01/25 09:23:54;;;;;;;13.07;12.17;;;;;;;7.03;66.32;93182.53;5032518;28;20226;-76
2024/01/25 09:26:19;;;;;;;12.40;10.80;;;;;;;7.27;65.66;93202.00;5032723;28;20218;-76
2024/01/25 09:28:45;;;;;;;12.00;10.20;;;;;;;7.44;65.23;93191.53;5032272;28;20269;-76
2024/01/25 09:31:10;;;;;;;11.27;10.50;;;;;;;7.37;66.10;93189.13;5032111;28;20186;-76
2024/01/25 09:33:35;;;;;;;13.30;11.83;;;;;;;7.38;64.99;93195.09;5032131;28;20211;-76
2024/01/25 09:36:01;;;;;;;11.63;10.80;;;;;;;7.54;65.83;93184.63;5032343;28;20195;-76
2024/01/25 09:38:27;;;;;;;12.90;11.77;;;;;;;7.31;65.52;93195.31;5031817;28;20238;-76
2024/01/25 09:40:52;;;;;;;11.57;10.67;;;;;;;7.21;67.22;93200.38;5032440;28;20198;-76
2024/01/25 09:43:20;;;;;;;10.80;9.87;;;;;;;7.23;66.73;93182.75;5031595;28;20239;-76
2024/01/25 09:45:48;;;;;;;11.57;10.60;;;;;;;7.38;66.09;93176.91;5032795;28;20234;-76
2024/01/25 09:48:14;;;;;;;14.30;11.00;;;;;;;7.22;66.08;93183.75;5031975;28;20227;-76
2024/01/25 09:50:40;;;;;;;12.13;10.90;;;;;;;7.19;67.10;93186.84;5031875;28;20178;-76
2024/01/25 09:53:11;;;;;;;12.40;11.40;;;;;;;7.28;69.53;93164.63;5031762;28;20234;-77
2024/01/25 09:55:40;;;;;;;11.30;10.37;;;;;;;7.35;65.81;93164.41;5030388;28;20187;-77
2024/01/25 09:58:07;;;;;;;13.20;11.90;;;;;;;7.39;65.75;93158.47;5031759;28;20225;-76
2024/01/25 10:00:33;;;;;;;11.47;10.37;;;;;;;7.30;66.34;93152.16;5031843;28;20251;-76
2024/01/25 10:02:58;;;;;;;11.00;10.40;;;;;;;7.18;66.22;93161.91;5046755;28;21194;-76
2024/01/25 10:05:23;;;;;;;12.03;11.20;;;;;;;7.21;66.35;93158.84;5031675;28;20223;-77
2024/01/25 10:07:49;;;;;;;12.83;11.80;;;;;;;7.15;65.39;93133.84;5031547;28;20226;-77
2024/01/25 10:10:14;;;;;;;11.83;10.90;;;;;;;7.15;66.30;93133.84;5030671;28;20190;-76
2024/01/25 10:12:42;;;;;;;12.03;10.03;;;;;;;7.14;65.74;93134.88;5030981;28;20230;-76
2024/01/25 10:15:08;;;;;;;12.57;10.50;;;;;;;7.28;65.99;93133.47;5031864;28;20182;-76
2024/01/25 10:17:33;;;;;;;10.50;9.67;;;;;;;7.31;65.72;93125.19;5031377;28;20272;-75
2024/01/25 10:19:59;;;;;;;12.70;11.67;;;;;;;7.20;65.90;93115.72;5031743;28;20213;-76
2024/01/25 10:22:24;;;;;;;11.60;10.40;;;;;;;7.50;66.65;93125.63;5031414;28;20220;-75
2024/01/25 10:24:50;;;;;;;11.67;10.50;;;;;;;7.36;65.68;93124.44;5031763;28;20214;-76
2024/01/25 10:27:16;;;;;;;12.60;11.20;;;;;;;7.46;65.37;93130.50;5031337;28;20246;-75
2024/01/25 10:29:42;;;;;;;10.63;9.73;;;;;;;7.65;64.95;93108.34;5031774;28;20190;-76
2024/01/25 10:32:09;;;;;;;13.77;10.80;;;;;;;7.78;65.10;93127.94;5030953;28;20219;-77
2024/01/25 10:34:36;;;;;;;12.33;10.83;;;;;;;8.01;63.99;93117.97;5031411;28;20190;-76
2024/01/25 10:37:04;;;;;;;13.93;10.77;;;;;;;7.67;63.48;93116.66;5031012;28;20230;-76
2024/01/25 10:39:30;;;;;;;11.10;10.20;;;;;;;7.81;62.79;93119.63;5031516;28;20243;-76
2024/01/25 10:41:56;;;;;;;12.83;11.80;;;;;;;7.81;62.80;93111.84;5030858;28;20237;-76
2024/01/25 10:44:21;;;;;;;12.53;11.23;;;;;;;7.70;63.17;93118.78;5031152;28;20227;-76
2024/01/25 10:46:48;;;;;;;11.00;10.27;;;;;;;7.81;62.92;93115.19;5030649;28;20282;-77
2024/01/25 10:49:14;;;;;;;11.60;10.60;;;;;;;7.88;62.32;93115.78;5031822;28;20209;-76
2024/01/25 10:51:43;;;;;;;11.77;10.60;;;;;;;7.81;61.73;93101.44;5030584;28;20294;-76
2024/01/25 10:54:09;;;;;;;12.60;11.23;;;;;;;7.82;62.07;93090.78;5031329;28;20206;-77
2024/01/25 10:56:35;;;;;;;11.80;10.80;;;;;;;7.91;60.98;93104.88;5030962;28;20226;-76
2024/01/25 10:59:01;;;;;;;11.43;10.70;;;;;;;7.85;61.26;93092.88;5031345;28;20186;-76
2024/01/25 11:01:29;;;;;;;10.90;9.87;;;;;;;7.84;60.95;93099.09;5030929;28;20187;-76
2024/01/25 11:03:54;;;;;;;10.93;10.23;;;;;;;7.57;59.93;93106.19;5031271;28;20681;-76
2024/01/25 11:06:22;;;;;;;13.17;11.20;;;;;;;7.67;60.79;93111.44;5030200;28;20210;-76
2024/01/25 11:08:48;;;;;;;12.07;10.97;;;;;;;7.59;60.57;93096.34;5031044;28;20194;-76
2024/01/25 11:11:14;;;;;;;12.00;10.40;;;;;;;7.87;61.23;93096.03;5030286;28;20178;-75
2024/01/25 11:13:41;;;;;;;11.53;10.43;;;;;;;7.89;59.20;93088.75;5030538;28;20187;-76
2024/01/25 11:16:29;;;;;;;11.60;10.70;;;;;;;7.78;58.42;93071.50;5030819;28;20278;-76
2024/01/25 11:18:58;;;;;;;10.20;9.60;;;;;;;7.69;58.25;93067.81;5025789;28;20203;-75
2024/01/25 11:21:46;;;;;;;13.57;10.80;;;;;;;7.93;59.00;93063.84;5030103;28;20213;-76
2024/01/25 11:24:21;;;;;;;12.00;10.83;;;;;;;7.55;59.10;93019.91;5029560;28;20201;-76